LHKE Airport Information

Runway Information
Runway 12 Length 8200 ft width 197 ft
Elevation 376 ft Threshold ft Heading 123
Runway 30 Length 8200 ft Width 197 ft
Elevation 376 ft Threshold ft Heading 303
Airport Frequencies
Type APP Name APP Frequency 120.25 MHZ
Type TWR Name TWR Frequency 135.75 MHZ
Airport Navaids
Type NDB Name Titan Frequency 440 KHZ
Type NDB Name Titan Frequency 313 KHZ
Type NDB Name Titan Frequency 440 KHZ
Type NDB Name Titan Frequency 313 KHZ
Airport Weather Information & NOTAM
ADDS - METARS form results

(1841 UTC 27 January 2023)
Data provider http://aviationweather.gov/metar/data/
 
METAR text: LHKE 271815Z 34006KT 300V010 8000 OVC025 01/M01 Q1015 RESN TEMPO -SN RMK BLU
Conditions at: LHKE (KECSKEMET , HU) observed 1815 UTC 27 January 2023
Temperature: 1.0°C (34°F)
Dewpoint: -1.0°C (30°F) [RH = 86%]
Pressure (altimeter): 29.97 inches Hg (1015.0 mb)
Winds: from the NNW (340 degrees) at 7 MPH (6 knots; 3.1 m/s)
Visibility: 5 miles ( 8 km)
Ceiling: 2500 feet AGL
Clouds: overcast cloud deck at 2500 feet AGL
Weather: no significant weather observed at this time

METAR text: LHKE 271745Z 34006KT 6000 -SN OVC010 01/M01 Q1015 TEMPO 8000 NSW RMK GRN
Conditions at: LHKE (KECSKEMET , HU) observed 1745 UTC 27 January 2023
Temperature: 1.0°C (34°F)
Dewpoint: -1.0°C (30°F) [RH = 86%]
Pressure (altimeter): 29.97 inches Hg (1015.0 mb)
Winds: from the NNW (340 degrees) at 7 MPH (6 knots; 3.1 m/s)
Visibility: 4 miles ( 6 km)
Ceiling: 1000 feet AGL
Clouds: overcast cloud deck at 1000 feet AGL
Weather: -SN  (light snow)

Forecast for: LHKE (KECSKEMET , HU)
Text: TAF LHKE 271715Z 2718/2803 34006KT 6000 SCT010 OVC020
Forecast period: 1800 UTC 27 January 2023 to 0300 UTC 28 January 2023
Forecast type: FROM: standard forecast or significant change
Winds: from the NNW (340 degrees) at 7 MPH (6 knots; 3.1 m/s)
Visibility: 4 miles (6 km)
Ceiling: 2000 feet AGL
Clouds: scattered clouds at 1000 feet AGL
overcast cloud deck at 2000 feet AGL
Weather: no significant weather forecast for this period
Text: TEMPO 2718/2803 3000 -SN BR BKN005 OVC015
Forecast period: 1800 UTC 27 January 2023 to 0300 UTC 28 January 2023
Forecast type: TEMPORARY: The following changes expected for less than half the time period
Visibility: 1.86 miles (2.99 km)
Ceiling: 500 feet AGL
Clouds: broken clouds at 500 feet AGL
overcast cloud deck at 1500 feet AGL
Weather: -SN BR  (light snow, mist)